Emerald Coast — WDC9127 — position and weather

sailwx.info

Track history (hours):
 
Tides and Currents Weather Stations Pressure Air Temp Water Temp Dewpoint Dewpoint Depression Visibility Wind Speed Wind Dir Waves Ship Positions

Emerald Coast

Owner: Dann Marine Towing, LC, Chesapeake City, MD. More information available from US FCC via Universal Licensing System and Coast Guard Vessel Documentation Center.

Last reported at 2017-May-01 02:30 UTC. Time now 2017-May-01 02:31 UTC.
Position N 40°39' W 074°06'.

Length 24 m; draft 3 m.

Type: Tug. MMSI: 367097920.

Date/timePositionNaut miles runAvg speedWind from/ knotsBaromVisibWave heightAir tempDewpointWater temp
2017-May-01 02:30N 40°39' W 074°06'0 0.2
2017-May-01 02:00N 40°39' W 074°06'1 2.9
2017-May-01 01:30N 40°39' W 074°04'2 4.3
2017-May-01 01:00N 40°40' W 074°01'1 2.0
2017-May-01 00:28N 40°40' W 074°00'0 0.0
2017-Apr-30 23:58N 40°40' W 074°00'0 0.0
2017-Apr-30 23:28N 40°40' W 074°00'0 0.0
2017-Apr-30 22:58N 40°40' W 074°00'0 0.2
2017-Apr-30 22:29N 40°40' W 074°00'0 0.0
2017-Apr-30 21:59N 40°40' W 074°00'0 0.0
2017-Apr-30 21:29N 40°40' W 074°00'0 0.0
2017-Apr-30 20:59N 40°40' W 074°00'0 0.0
2017-Apr-30 20:29N 40°40' W 074°00'0 0.0
2017-Apr-30 19:59N 40°40' W 074°00'0 0.0
2017-Apr-30 19:29N 40°40' W 074°00'0 0.0
2017-Apr-30 18:56N 40°40' W 074°00'0 0.0
2017-Apr-30 18:29N 40°40' W 074°00'0 0.0
2017-Apr-30 17:59N 40°40' W 074°00'0 0.0
2017-Apr-30 17:26N 40°40' W 074°00'0 0.0
2017-Apr-30 16:59N 40°40' W 074°00'0 0.0
2017-Apr-30 16:29N 40°40' W 074°00'0 0.0
2017-Apr-30 15:59N 40°40' W 074°00'0 0.0
2017-Apr-30 15:29N 40°40' W 074°00'0 0.0
2017-Apr-30 14:59N 40°40' W 074°00'0 0.7
2017-Apr-30 14:28N 40°40' W 074°00'0 0.0
2017-Apr-30 13:28N 40°40' W 074°00'0 0.0
2017-Apr-30 12:58N 40°40' W 074°00'0 0.0
2017-Apr-30 12:28N 40°40' W 074°00'0 0.0
2017-Apr-30 11:58N 40°40' W 074°00'0 0.0
2017-Apr-30 11:28N 40°40' W 074°00'0 0.0
2017-Apr-30 11:00N 40°40' W 074°00'0 0.0
2017-Apr-30 10:30N 40°40' W 074°00'0 0.0
2017-Apr-30 10:00N 40°40' W 074°00'0 0.0
2017-Apr-30 09:30N 40°40' W 074°00'0 0.0
2017-Apr-30 09:00N 40°40' W 074°00'0 0.0
2017-Apr-30 08:30N 40°40' W 074°00'0 0.0
2017-Apr-30 08:00N 40°40' W 074°00'0 0.0
2017-Apr-30 07:30N 40°40' W 074°00'0 0.0
2017-Apr-30 07:00N 40°40' W 074°00'0 0.0
2017-Apr-30 06:30N 40°40' W 074°00'0 0.0
2017-Apr-30 06:00N 40°40' W 074°00'0 0.0
2017-Apr-30 05:30N 40°40' W 074°00'0 0.0
2017-Apr-30 05:00N 40°40' W 074°00'0 0.0
2017-Apr-30 04:30N 40°40' W 074°00'0 0.0
2017-Apr-30 04:00N 40°40' W 074°00'0 0.0
2017-Apr-30 03:30N 40°40' W 074°00'0 0.0
2017-Apr-30 03:00N 40°40' W 074°00'0 0.0
2017-Apr-30 02:30N 40°40' W 074°00'0 0.0
2017-Apr-30 02:00N 40°40' W 074°00'0 0.0
2017-Apr-30 01:30N 40°40' W 074°00'0 0.0
2017-Apr-30 01:00N 40°40' W 074°00'0 0.0
2017-Apr-30 00:30N 40°40' W 074°00'0 0.2
2017-Apr-30 00:00N 40°40' W 074°00'0 0.6
2017-Apr-29 23:30N 40°40' W 074°00'0 0.0
2017-Apr-29 23:00N 40°40' W 074°00'0 0.0
2017-Apr-29 22:30N 40°40' W 074°00'0 0.0
2017-Apr-29 22:00N 40°40' W 074°00'0 0.0
2017-Apr-29 21:30N 40°40' W 074°00'0 0.0
2017-Apr-29 21:00N 40°40' W 074°00'0 0.0
2017-Apr-29 20:30N 40°40' W 074°00'0 0.0
2017-Apr-29 20:00N 40°40' W 074°00'0 0.0
2017-Apr-29 19:30N 40°40' W 074°00'0 0.0
2017-Apr-29 19:00N 40°40' W 074°00'0 0.0
2017-Apr-29 18:30N 40°40' W 074°00'0 0.0
2017-Apr-29 18:00N 40°40' W 074°00'0 0.0
2017-Apr-29 17:30N 40°40' W 074°00'0 0.0
2017-Apr-29 17:00N 40°40' W 074°00'0 0.0
2017-Apr-29 16:30N 40°40' W 074°00'1 2.7
2017-Apr-29 16:00N 40°39' W 074°02'3 6.5
2017-Apr-29 15:30N 40°39' W 074°06'3 5.5
2017-Apr-29 15:00N 40°40' W 074°02'2 1.8
2017-Apr-29 14:00N 40°40' W 074°00'0 0.0
2017-Apr-29 13:30N 40°40' W 074°00'0 0.0
2017-Apr-29 13:00N 40°40' W 074°00'4 7.3
2017-Apr-29 12:30N 40°39' W 074°05'1 1.3
2017-Apr-29 12:00N 40°39' W 074°05'2 4.4
2017-Apr-29 11:30N 40°39' W 074°08'2 4.4
2017-Apr-29 11:00N 40°41' W 074°09'1 1.5
2017-Apr-29 10:30N 40°40' W 074°09'3 5.6
2017-Apr-29 10:00N 40°39' W 074°05'4 7.5
2017-Apr-29 09:30N 40°40' W 074°00'1 2.9
2017-Apr-29 09:00N 40°39' W 074°02'3 6.4
2017-Apr-29 08:30N 40°39' W 074°06'2 4.6
2017-Apr-29 08:00N 40°40' W 074°09'1 1.9
2017-Apr-29 07:30N 40°41' W 074°09'0 0.5
2017-Apr-29 07:00N 40°41' W 074°09'0 0.0
2017-Apr-29 06:30N 40°41' W 074°09'0 0.5
2017-Apr-29 06:00N 40°41' W 074°10'0 0.0
2017-Apr-29 05:30N 40°41' W 074°10'0 0.0
2017-Apr-29 05:00N 40°41' W 074°10'2 3.5
2017-Apr-29 04:30N 40°40' W 074°09'1 3.0
2017-Apr-29 04:00N 40°39' W 074°07'1 1.7
2017-Apr-29 03:30N 40°39' W 074°06'0 0.2
2017-Apr-29 03:00N 40°39' W 074°06'1 2.8
2017-Apr-29 02:30N 40°39' W 074°04'1 2.7
2017-Apr-29 02:00N 40°39' W 074°06'1 2.8
2017-Apr-29 01:30N 40°40' W 074°05'0 0.0
2017-Apr-29 01:00N 40°40' W 074°05'0 0.0
2017-Apr-29 00:30N 40°40' W 074°05'0 0.0
2017-Apr-29 00:00N 40°40' W 074°05'0 0.0
2017-Apr-28 23:30N 40°40' W 074°05'0 0.0
2017-Apr-28 23:00N 40°40' W 074°05'0 0.0
2017-Apr-28 22:30N 40°40' W 074°05'0 0.0
2017-Apr-28 22:00N 40°40' W 074°05'0 0.0
2017-Apr-28 21:30N 40°40' W 074°05'2 3.3
2017-Apr-28 21:00N 40°39' W 074°06'0 0.1
2017-Apr-28 20:30N 40°39' W 074°07'2 4.8
2017-Apr-28 20:00N 40°39' W 074°03'2 4.9
2017-Apr-28 19:30N 40°40' W 074°00'0 0.0
2017-Apr-28 19:00N 40°40' W 074°00'0 0.0
2017-Apr-28 18:30N 40°40' W 074°00'0 0.0
2017-Apr-28 18:00N 40°40' W 074°00'0 0.0
2017-Apr-28 17:30N 40°40' W 074°00'0 0.0
2017-Apr-28 17:00N 40°40' W 074°00'0 0.0
2017-Apr-28 16:30N 40°40' W 074°00'1 1.4
2017-Apr-28 16:00N 40°40' W 074°01'1 1.2
2017-Apr-28 15:30N 40°39' W 074°02'1 2.7
2017-Apr-28 15:00N 40°40' W 074°00'4 3.7
2017-Apr-28 14:00N 40°39' W 074°05'1 2.2
2017-Apr-28 13:30N 40°40' W 074°04'3 5.1
2017-Apr-28 13:00N 40°41' W 074°01'1 1.5
2017-Apr-28 12:30N 40°41' W 074°00'0 0.0
2017-Apr-28 12:00N 40°41' W 074°00'0 0.0
2017-Apr-28 11:30N 40°41' W 074°00'0 0.6
2017-Apr-28 11:00N 40°41' W 074°01'1 2.5
2017-Apr-28 10:30N 40°40' W 074°00'0 0.0
2017-Apr-28 10:00N 40°40' W 074°00'0 0.0
2017-Apr-28 09:30N 40°40' W 074°00'0 0.0
2017-Apr-28 09:00N 40°40' W 074°00'0 0.0
2017-Apr-28 08:30N 40°40' W 074°00'0 0.0
2017-Apr-28 08:00N 40°40' W 074°00'0 0.0
2017-Apr-28 07:30N 40°40' W 074°00'0 0.0
2017-Apr-28 07:00N 40°40' W 074°00'0 0.0
2017-Apr-28 06:30N 40°40' W 074°00'0 0.0
2017-Apr-28 06:00N 40°40' W 074°00'0 0.0
2017-Apr-28 05:30N 40°40' W 074°00'0 0.7
2017-Apr-28 05:00N 40°40' W 074°01'3 6.4
2017-Apr-28 04:30N 40°39' W 074°05'1 1.5
2017-Apr-28 04:00N 40°39' W 074°06'0 0.7
2017-Apr-28 03:30N 40°39' W 074°05'1 1.1
2017-Apr-28 03:00N 40°39' W 074°05'1 2.3
2017-Apr-28 02:30N 40°40' W 074°05'0 0.0
2017-Apr-28 02:00N 40°40' W 074°05'0 0.0
2017-Apr-28 01:30N 40°40' W 074°05'0 0.0
2017-Apr-28 01:00N 40°40' W 074°05'0 0.0
2017-Apr-28 00:30N 40°40' W 074°05'0 0.0
2017-Apr-28 00:00N 40°40' W 074°05'0 0.0
2017-Apr-27 23:30N 40°40' W 074°05'0 0.0
2017-Apr-27 23:00N 40°40' W 074°05'0 0.0
2017-Apr-27 22:30N 40°40' W 074°05'0 0.2
2017-Apr-27 22:00N 40°40' W 074°05'2 4.6
2017-Apr-27 21:30N 40°39' W 074°07'0 0.5
2017-Apr-27 21:00N 40°39' W 074°07'0 0.2
2017-Apr-27 20:29N 40°39' W 074°07'0 0.0
2017-Apr-27 20:00N 40°39' W 074°07'1 2.2
2017-Apr-27 19:30N 40°39' W 074°08'1 2.5
2017-Apr-27 19:00N 40°40' W 074°09'0 0.0
2017-Apr-27 18:30N 40°40' W 074°09'0 0.0
2017-Apr-27 18:00N 40°40' W 074°09'0 0.0
2017-Apr-27 17:30N 40°40' W 074°09'0 0.0
2017-Apr-27 17:00N 40°40' W 074°09'0 0.0
2017-Apr-27 16:30N 40°40' W 074°09'0 0.0
2017-Apr-27 15:57N 40°40' W 074°09'0 0.0
2017-Apr-27 15:30N 40°40' W 074°09'0 0.0
2017-Apr-27 14:59N 40°40' W 074°09'0 0.0
2017-Apr-27 14:00N 40°40' W 074°09'0 0.0
2017-Apr-27 13:30N 40°40' W 074°09'0 0.0
2017-Apr-27 13:00N 40°40' W 074°09'0 0.0
2017-Apr-27 12:30N 40°40' W 074°09'0 0.5
2017-Apr-27 12:00N 40°40' W 074°09'1 2.4
2017-Apr-27 11:30N 40°39' W 074°08'4 7.3
2017-Apr-27 11:00N 40°39' W 074°04'3 5.2
2017-Apr-27 10:30N 40°40' W 074°00'0 0.2
2017-Apr-27 10:00N 40°40' W 074°00'0 0.0
2017-Apr-27 09:30N 40°40' W 074°00'0 0.0
2017-Apr-27 09:00N 40°40' W 074°00'0 1.0
2017-Apr-27 08:30N 40°40' W 074°01'2 4.5
2017-Apr-27 08:00N 40°39' W 074°04'2 4.2
2017-Apr-27 07:30N 40°39' W 074°06'0 0.0
2017-Apr-27 07:00N 40°39' W 074°06'0 0.0
2017-Apr-27 06:30N 40°39' W 074°06'0 0.7
2017-Apr-27 06:00N 40°39' W 074°07'0 0.7
2017-Apr-27 05:28N 40°39' W 074°07'0 0.0
2017-Apr-27 04:29N 40°39' W 074°07'3 5.9
2017-Apr-27 04:00N 40°39' W 074°11'2 3.2
2017-Apr-27 03:30N 40°38' W 074°12'0 0.1
2017-Apr-27 02:59N 40°38' W 074°12'1 2.1
2017-Apr-27 02:30N 40°38' W 074°12'1 1.9
2017-Apr-27 02:00N 40°38' W 074°12'2 4.3
2017-Apr-27 01:30N 40°39' W 074°10'3 5.3
2017-Apr-27 01:00N 40°39' W 074°06'2 3.5
2017-Apr-27 00:30N 40°39' W 074°04'1 3.0
2017-Apr-27 00:00N 40°40' W 074°03'2 4.4
2017-Apr-26 23:30N 40°40' W 074°00'0 0.0
2017-Apr-26 23:00N 40°40' W 074°00'0 0.0
2017-Apr-26 22:31N 40°40' W 074°00'0 0.0
2017-Apr-26 22:00N 40°40' W 074°00'0 0.0
2017-Apr-26 21:30N 40°40' W 074°00'0 0.0
2017-Apr-26 21:00N 40°40' W 074°00'0 0.0
2017-Apr-26 20:30N 40°40' W 074°00'0 0.0
2017-Apr-26 20:00N 40°40' W 074°00'0 0.0
2017-Apr-26 19:30N 40°40' W 074°00'0 0.0
2017-Apr-26 19:00N 40°40' W 074°00'0 0.0
2017-Apr-26 18:30N 40°40' W 074°00'0 0.0
2017-Apr-26 18:00N 40°40' W 074°00'0 0.0
2017-Apr-26 17:30N 40°40' W 074°00'0 0.0
2017-Apr-26 17:00N 40°40' W 074°00'0 0.0
2017-Apr-26 16:30N 40°40' W 074°00'0 0.0
2017-Apr-26 16:00N 40°40' W 074°00'0 0.0
2017-Apr-26 15:30N 40°40' W 074°00'0 0.0
2017-Apr-26 15:00N 40°40' W 074°00'0 0.0
2017-Apr-26 14:30N 40°40' W 074°00'0 0.0
2017-Apr-26 13:30N 40°40' W 074°00'0 0.0
2017-Apr-26 13:00N 40°40' W 074°00'0 0.0
2017-Apr-26 12:30N 40°40' W 074°00'0 0.0
2017-Apr-26 12:00N 40°40' W 074°00'0 0.0
2017-Apr-26 11:30N 40°40' W 074°00'0 0.0
2017-Apr-26 11:00N 40°40' W 074°00'0 0.0
2017-Apr-26 10:30N 40°40' W 074°00'0 0.0
2017-Apr-26 10:00N 40°40' W 074°00'0 0.0
2017-Apr-26 09:30N 40°40' W 074°00'0 0.0
2017-Apr-26 09:00N 40°40' W 074°00'0 0.0
2017-Apr-26 08:30N 40°40' W 074°00'0 0.0
2017-Apr-26 08:00N 40°40' W 074°00'0 0.0
2017-Apr-26 07:30N 40°40' W 074°00'0 0.0
2017-Apr-26 07:00N 40°40' W 074°00'0 0.0
2017-Apr-26 06:30N 40°40' W 074°00'0 0.0
2017-Apr-26 06:00N 40°40' W 074°00'2 4.7
2017-Apr-26 05:30N 40°39' W 074°03'2 4.1
2017-Apr-26 05:00N 40°39' W 074°05'0 0.2
2017-Apr-26 04:30N 40°39' W 074°05'0 0.2
2017-Apr-26 04:00N 40°39' W 074°05'2 3.7
2017-Apr-26 03:30N 40°39' W 074°03'2 4.5
2017-Apr-26 02:59N 40°40' W 074°00'0 0.0
2017-Apr-26 02:29N 40°40' W 074°00'0 0.0
2017-Apr-26 01:59N 40°40' W 074°00'0 0.0
2017-Apr-26 01:29N 40°40' W 074°00'0 0.0
2017-Apr-26 00:59N 40°40' W 074°00'0 0.0
2017-Apr-26 00:29N 40°40' W 074°00'0 0.0
2017-Apr-25 23:59N 40°40' W 074°00'0 0.0
2017-Apr-25 23:29N 40°40' W 074°00'0 0.0
2017-Apr-25 22:59N 40°40' W 074°00'0 0.0
2017-Apr-25 22:29N 40°40' W 074°00'0 0.0
2017-Apr-25 21:59N 40°40' W 074°00'0 0.0
2017-Apr-25 21:29N 40°40' W 074°00'0 0.0
2017-Apr-25 20:59N 40°40' W 074°00'0 0.0
2017-Apr-25 20:29N 40°40' W 074°00'0 0.0
2017-Apr-25 19:59N 40°40' W 074°00'0 0.0
2017-Apr-25 19:29N 40°40' W 074°00'0 0.0
2017-Apr-25 18:59N 40°40' W 074°00'0 0.0
2017-Apr-25 18:29N 40°40' W 074°00'0 0.0
2017-Apr-25 17:59N 40°40' W 074°00'0 0.0
2017-Apr-25 17:29N 40°40' W 074°00'0 0.0
2017-Apr-25 16:59N 40°40' W 074°00'0 0.0
2017-Apr-25 16:29N 40°40' W 074°00'0 0.0
2017-Apr-25 15:59N 40°40' W 074°00'0 0.0
2017-Apr-25 15:29N 40°40' W 074°00'0 0.0
2017-Apr-25 14:59N 40°40' W 074°00'0 0.0
2017-Apr-25 14:29N 40°40' W 074°00'0 0.0
2017-Apr-25 13:29N 40°40' W 074°00'0 0.0
2017-Apr-25 12:59N 40°40' W 074°00'0 0.0
2017-Apr-25 12:29N 40°40' W 074°00'0 0.0
2017-Apr-25 11:59N 40°40' W 074°00'0 0.0
2017-Apr-25 11:29N 40°40' W 074°00'0 0.0
2017-Apr-25 10:59N 40°40' W 074°00'0 0.0
2017-Apr-25 10:29N 40°40' W 074°00'0 0.0
2017-Apr-25 09:59N 40°40' W 074°00'0 0.0
2017-Apr-25 09:29N 40°40' W 074°00'0 0.0
2017-Apr-25 08:59N 40°40' W 074°00'0 0.0
2017-Apr-25 08:29N 40°40' W 074°00'0 0.0
2017-Apr-25 07:59N 40°40' W 074°00'0 0.0
2017-Apr-25 07:29N 40°40' W 074°00'0 0.0
2017-Apr-25 06:59N 40°40' W 074°00'0 0.0
2017-Apr-25 06:29N 40°40' W 074°00'0 0.0
2017-Apr-25 05:59N 40°40' W 074°00'0 0.0
2017-Apr-25 05:29N 40°40' W 074°00'0 0.0
2017-Apr-25 04:59N 40°40' W 074°00'0 0.0
2017-Apr-25 04:29N 40°40' W 074°00'0 0.0
2017-Apr-25 03:59N 40°40' W 074°00'0 0.0
2017-Apr-25 03:29N 40°40' W 074°00'0 0.0
2017-Apr-25 02:59N 40°40' W 074°00'0 0.0
2017-Apr-25 02:29N 40°40' W 074°00'0 0.0
2017-Apr-25 01:59N 40°40' W 074°00'0 0.0
2017-Apr-25 01:29N 40°40' W 074°00'0 0.0
2017-Apr-25 00:59N 40°40' W 074°00'0 0.0
2017-Apr-25 00:29N 40°40' W 074°00'0 0.0
2017-Apr-24 23:59N 40°40' W 074°00'0 0.0
2017-Apr-24 23:29N 40°40' W 074°00'0 0.0
2017-Apr-24 22:59N 40°40' W 074°00'0 0.0
2017-Apr-24 22:29N 40°40' W 074°00'0 0.0
2017-Apr-24 21:59N 40°40' W 074°00'0 0.0
2017-Apr-24 21:29N 40°40' W 074°00'0 0.0
2017-Apr-24 20:59N 40°40' W 074°00'0 0.0
2017-Apr-24 20:29N 40°40' W 074°00'0 0.0
2017-Apr-24 19:59N 40°40' W 074°00'0 0.0
2017-Apr-24 19:29N 40°40' W 074°00'0 0.0
2017-Apr-24 18:59N 40°40' W 074°00'0 0.0
2017-Apr-24 18:29N 40°40' W 074°00'0 0.0
2017-Apr-24 17:59N 40°40' W 074°00'0 0.0
2017-Apr-24 17:29N 40°40' W 074°00'0 0.0
2017-Apr-24 16:59N 40°40' W 074°00'0 0.0
2017-Apr-24 16:29N 40°40' W 074°00'0 0.0
2017-Apr-24 15:59N 40°40' W 074°00'0 0.0
2017-Apr-24 15:29N 40°40' W 074°00'0 0.0
2017-Apr-24 14:59N 40°40' W 074°00'0 0.0
2017-Apr-24 14:29N 40°40' W 074°00'0 0.0
2017-Apr-24 13:29N 40°40' W 074°00'0 0.0
2017-Apr-24 12:59N 40°40' W 074°00'0 0.0
2017-Apr-24 12:29N 40°40' W 074°00'0 0.0
2017-Apr-24 11:59N 40°40' W 074°00'0 0.0
2017-Apr-24 11:29N 40°40' W 074°00'0 0.0
2017-Apr-24 10:56N 40°40' W 074°00'0 0.0
2017-Apr-24 10:29N 40°40' W 074°00'0 0.0
2017-Apr-24 09:59N 40°40' W 074°00'0 0.0
2017-Apr-24 09:29N 40°40' W 074°00'0 0.0
2017-Apr-24 08:59N 40°40' W 074°00'0 0.0
2017-Apr-24 08:29N 40°40' W 074°00'0 0.0
2017-Apr-24 07:59N 40°40' W 074°00'0 0.0
2017-Apr-24 07:29N 40°40' W 074°00'0 0.0
2017-Apr-24 06:59N 40°40' W 074°00'0 0.0
2017-Apr-24 06:29N 40°40' W 074°00'0 0.0
2017-Apr-24 05:59N 40°40' W 074°00'0 0.0
2017-Apr-24 05:29N 40°40' W 074°00'0 0.0
2017-Apr-24 04:59N 40°40' W 074°00'0 0.0
2017-Apr-24 04:29N 40°40' W 074°00'0 0.0
2017-Apr-24 03:59N 40°40' W 074°00'0 0.0
2017-Apr-24 03:29N 40°40' W 074°00'0 0.0
2017-Apr-24 02:59N 40°40' W 074°00'0 0.0
2017-Apr-24 02:29N 40°40' W 074°00'0 0.0
2017-Apr-24 01:59N 40°40' W 074°00'0 0.0
2017-Apr-24 01:29N 40°40' W 074°00'0 0.0
2017-Apr-24 00:59N 40°40' W 074°00'0 0.0
2017-Apr-24 00:29N 40°40' W 074°00'0 0.0
2017-Apr-23 23:59N 40°40' W 074°00'0 0.0
2017-Apr-23 23:29N 40°40' W 074°00'0 0.0
2017-Apr-23 22:59N 40°40' W 074°00'0 0.0
2017-Apr-23 22:29N 40°40' W 074°00'0 0.0
2017-Apr-23 21:56N 40°40' W 074°00'0 0.0
2017-Apr-23 21:29N 40°40' W 074°00'0 0.0
2017-Apr-23 20:59N 40°40' W 074°00'0 0.0
2017-Apr-23 20:29N 40°40' W 074°00'0 0.0
2017-Apr-23 19:59N 40°40' W 074°00'0 0.0
2017-Apr-23 19:29N 40°40' W 074°00'0 0.0
2017-Apr-23 18:59N 40°40' W 074°00'0 0.0
2017-Apr-23 18:29N 40°40' W 074°00'0 0.0
2017-Apr-23 17:59N 40°40' W 074°00'0 0.0
2017-Apr-23 17:29N 40°40' W 074°00'0 0.0
2017-Apr-23 16:59N 40°40' W 074°00'0 0.0
2017-Apr-23 16:29N 40°40' W 074°00'0 0.0
2017-Apr-23 15:59N 40°40' W 074°00'0 0.0
2017-Apr-23 15:29N 40°40' W 074°00'0 0.0
2017-Apr-23 14:59N 40°40' W 074°00'0 0.0
2017-Apr-23 13:59N 40°40' W 074°00'0 0.0
2017-Apr-23 13:29N 40°40' W 074°00'0 0.0
2017-Apr-23 12:59N 40°40' W 074°00'0 0.0
2017-Apr-23 12:29N 40°40' W 074°00'0 0.0
2017-Apr-23 11:59N 40°40' W 074°00'0 0.0
2017-Apr-23 11:29N 40°40' W 074°00'0 0.2
2017-Apr-23 11:00N 40°40' W 074°00'0 0.5
2017-Apr-23 10:30N 40°40' W 074°00'0 0.1
2017-Apr-23 09:58N 40°40' W 074°00'0 0.6
2017-Apr-23 09:24N 40°40' W 073°60'0 0.0
2017-Apr-23 09:00N 40°40' W 073°60'0 0.0
2017-Apr-23 08:30N 40°40' W 073°60'0 0.0
2017-Apr-23 08:00N 40°40' W 073°60'0 0.0
2017-Apr-23 07:30N 40°40' W 073°60'0 0.0
2017-Apr-23 07:00N 40°40' W 073°60'0 0.0
2017-Apr-23 06:30N 40°40' W 073°60'0 0.0
2017-Apr-23 06:00N 40°40' W 074°00'0 0.0
2017-Apr-23 05:30N 40°40' W 074°00'0 0.0
2017-Apr-23 05:00N 40°40' W 073°60'0 0.0
2017-Apr-23 04:30N 40°40' W 073°60'0 0.0
2017-Apr-23 04:00N 40°40' W 073°60'0 0.0
2017-Apr-23 03:27N 40°40' W 073°60'0 0.0
2017-Apr-23 03:00N 40°40' W 073°60'0 0.0
2017-Apr-23 02:30N 40°40' W 073°60'0 0.0
2017-Apr-23 02:00N 40°40' W 073°60'0 0.0
2017-Apr-23 01:30N 40°40' W 073°60'0 0.0
2017-Apr-23 01:00N 40°40' W 073°60'0 0.0
2017-Apr-23 00:30N 40°40' W 073°60'0 0.0
2017-Apr-23 00:00N 40°40' W 073°60'0 0.0
2017-Apr-22 23:30N 40°40' W 073°60'0 0.0
2017-Apr-22 23:00N 40°40' W 074°00'0 0.0
2017-Apr-22 22:30N 40°40' W 074°00'0 0.0
2017-Apr-22 22:00N 40°40' W 073°60'0 0.0
2017-Apr-22 21:30N 40°40' W 073°60'0 0.0
2017-Apr-22 21:00N 40°40' W 073°60'0 0.0
2017-Apr-22 20:30N 40°40' W 073°60'0 0.0
2017-Apr-22 20:00N 40°40' W 073°60'0 0.0
2017-Apr-22 19:30N 40°40' W 073°60'0 0.0
2017-Apr-22 19:00N 40°40' W 073°60'0 0.0
2017-Apr-22 18:30N 40°40' W 074°00'0 0.0
2017-Apr-22 18:00N 40°40' W 074°00'0 0.0
2017-Apr-22 17:30N 40°40' W 073°60'0 0.0
2017-Apr-22 17:00N 40°40' W 073°60'0 0.0
2017-Apr-22 16:30N 40°40' W 073°60'0 0.0
2017-Apr-22 16:00N 40°40' W 074°00'0 0.0
2017-Apr-22 15:30N 40°40' W 073°60'0 0.0
2017-Apr-22 15:00N 40°40' W 073°60'0 0.0
2017-Apr-22 14:30N 40°40' W 073°60'0 0.0
2017-Apr-22 13:30N 40°40' W 073°60'0 0.0
2017-Apr-22 13:00N 40°40' W 073°60'0 0.0
2017-Apr-22 12:30N 40°40' W 074°00'0 0.6
2017-Apr-22 11:58N 40°40' W 074°00'0 0.6
2017-Apr-22 11:30N 40°40' W 074°00'0 0.0
2017-Apr-22 11:00N 40°40' W 074°00'0 0.0
2017-Apr-22 10:30N 40°40' W 074°00'0 0.0
2017-Apr-22 10:00N 40°40' W 074°00'0 0.0
2017-Apr-22 09:30N 40°40' W 074°00'0 0.0
2017-Apr-22 09:00N 40°40' W 074°00'0 0.0
2017-Apr-22 08:30N 40°40' W 074°00'0 0.0
2017-Apr-22 08:00N 40°40' W 074°00'0 0.0
2017-Apr-22 07:30N 40°40' W 074°00'0 0.0
2017-Apr-22 07:00N 40°40' W 074°00'0 0.0
2017-Apr-22 06:30N 40°40' W 074°00'0 0.0
2017-Apr-22 06:00N 40°40' W 074°00'0 0.0
2017-Apr-22 05:30N 40°40' W 074°00'0 0.0
2017-Apr-22 05:00N 40°40' W 074°00'0 0.0
2017-Apr-22 04:30N 40°40' W 074°00'0 0.0
2017-Apr-22 04:00N 40°40' W 074°00'0 0.0
2017-Apr-22 03:30N 40°40' W 074°00'0 0.0
2017-Apr-22 03:00N 40°40' W 074°00'0 0.0
2017-Apr-22 02:30N 40°40' W 074°00'0 0.0
2017-Apr-22 02:00N 40°40' W 074°00'0 0.0
2017-Apr-22 01:30N 40°40' W 074°00'0 0.0
2017-Apr-22 01:00N 40°40' W 074°00'0 0.0
2017-Apr-22 00:30N 40°40' W 074°00'0 0.0
2017-Apr-22 00:00N 40°40' W 074°00'0 0.0
2017-Apr-21 23:30N 40°40' W 074°00'0 0.0
2017-Apr-21 23:00N 40°40' W 074°00'0 0.0
2017-Apr-21 22:30N 40°40' W 074°00'0 0.0
2017-Apr-21 22:00N 40°40' W 074°00'0 0.0
2017-Apr-21 21:30N 40°40' W 074°00'0 0.0
2017-Apr-21 21:00N 40°40' W 074°00'0 0.0
2017-Apr-21 20:30N 40°40' W 074°00'0 0.0
2017-Apr-21 20:00N 40°40' W 074°00'0 0.0
2017-Apr-21 19:30N 40°40' W 074°00'0 0.0
2017-Apr-21 19:00N 40°40' W 074°00'0 0.0
2017-Apr-21 18:30N 40°40' W 074°00'0 0.0
2017-Apr-21 18:00N 40°40' W 074°00'0 0.0
2017-Apr-21 17:30N 40°40' W 074°00'0 0.0
2017-Apr-21 17:00N 40°40' W 074°00'0 0.0
2017-Apr-21 16:30N 40°40' W 074°00'0 0.0
2017-Apr-21 16:00N 40°40' W 074°00'0 0.0
2017-Apr-21 15:30N 40°40' W 074°00'0 0.0
2017-Apr-21 15:00N 40°40' W 074°00'0 0.0
2017-Apr-21 14:30N 40°40' W 074°00'0 0.0
2017-Apr-21 13:30N 40°40' W 074°00'0 0.0
2017-Apr-21 13:00N 40°40' W 074°00'0 0.0
2017-Apr-21 12:30N 40°40' W 074°00'0 0.0
2017-Apr-21 12:00N 40°40' W 074°00'0 0.0
2017-Apr-21 11:30N 40°40' W 074°00'0 0.0
2017-Apr-21 11:00N 40°40' W 074°00'0 0.0
2017-Apr-21 10:30N 40°40' W 074°00'0 0.0
2017-Apr-21 10:00N 40°40' W 074°00'0 0.0
2017-Apr-21 09:30N 40°40' W 074°00'0 0.0
2017-Apr-21 09:00N 40°40' W 074°00'0 0.0
2017-Apr-21 08:30N 40°40' W 074°00'0 0.0
2017-Apr-21 07:57N 40°40' W 074°00'0 0.0
2017-Apr-21 07:30N 40°40' W 074°00'0 0.0
2017-Apr-21 07:00N 40°40' W 074°00'0 0.0
2017-Apr-21 06:30N 40°40' W 074°00'0 0.0
2017-Apr-21 06:00N 40°40' W 074°00'0 0.0
2017-Apr-21 05:30N 40°40' W 074°00'0 0.0
2017-Apr-21 05:00N 40°40' W 074°00'0 0.0
2017-Apr-21 04:30N 40°40' W 074°00'0 0.0
2017-Apr-21 04:00N 40°40' W 074°00'0 0.0
2017-Apr-21 03:30N 40°40' W 074°00'0 0.0
2017-Apr-21 03:00N 40°40' W 074°00'  
Track history (hours):
 
Tides and Currents Weather Stations Pressure Air Temp Water Temp Dewpoint Dewpoint Depression Visibility Wind Speed Wind Dir Waves Ship Positions

Emerald Coast

Owner: Dann Marine Towing, LC, Chesapeake City, MD. More information available from US FCC via Universal Licensing System and Coast Guard Vessel Documentation Center.

Last reported at 2017-May-01 02:30 UTC. Time now 2017-May-01 02:31 UTC.
Position N 40°39' W 074°06'.

Length 24 m; draft 3 m.

Type: Tug. MMSI: 367097920.

Date/timePositionNaut miles runAvg speedWind from/ knotsBaromVisibWave heightAir tempDewpointWater temp
2017-May-01 02:30N 40°39' W 074°06'0 0.2
2017-May-01 02:00N 40°39' W 074°06'1 2.9
2017-May-01 01:30N 40°39' W 074°04'2 4.3
2017-May-01 01:00N 40°40' W 074°01'1 2.0
2017-May-01 00:28N 40°40' W 074°00'0 0.0
2017-Apr-30 23:58N 40°40' W 074°00'0 0.0
2017-Apr-30 23:28N 40°40' W 074°00'0 0.0
2017-Apr-30 22:58N 40°40' W 074°00'0 0.2
2017-Apr-30 22:29N 40°40' W 074°00'0 0.0
2017-Apr-30 21:59N 40°40' W 074°00'0 0.0
2017-Apr-30 21:29N 40°40' W 074°00'0 0.0
2017-Apr-30 20:59N 40°40' W 074°00'0 0.0
2017-Apr-30 20:29N 40°40' W 074°00'0 0.0
2017-Apr-30 19:59N 40°40' W 074°00'0 0.0
2017-Apr-30 19:29N 40°40' W 074°00'0 0.0
2017-Apr-30 18:56N 40°40' W 074°00'0 0.0
2017-Apr-30 18:29N 40°40' W 074°00'0 0.0
2017-Apr-30 17:59N 40°40' W 074°00'0 0.0
2017-Apr-30 17:26N 40°40' W 074°00'0 0.0
2017-Apr-30 16:59N 40°40' W 074°00'0 0.0
2017-Apr-30 16:29N 40°40' W 074°00'0 0.0
2017-Apr-30 15:59N 40°40' W 074°00'0 0.0
2017-Apr-30 15:29N 40°40' W 074°00'0 0.0
2017-Apr-30 14:59N 40°40' W 074°00'0 0.7
2017-Apr-30 14:28N 40°40' W 074°00'0 0.0
2017-Apr-30 13:28N 40°40' W 074°00'0 0.0
2017-Apr-30 12:58N 40°40' W 074°00'0 0.0
2017-Apr-30 12:28N 40°40' W 074°00'0 0.0
2017-Apr-30 11:58N 40°40' W 074°00'0 0.0
2017-Apr-30 11:28N 40°40' W 074°00'0 0.0
2017-Apr-30 11:00N 40°40' W 074°00'0 0.0
2017-Apr-30 10:30N 40°40' W 074°00'0 0.0
2017-Apr-30 10:00N 40°40' W 074°00'0 0.0
2017-Apr-30 09:30N 40°40' W 074°00'0 0.0
2017-Apr-30 09:00N 40°40' W 074°00'0 0.0
2017-Apr-30 08:30N 40°40' W 074°00'0 0.0
2017-Apr-30 08:00N 40°40' W 074°00'0 0.0
2017-Apr-30 07:30N 40°40' W 074°00'0 0.0
2017-Apr-30 07:00N 40°40' W 074°00'0 0.0
2017-Apr-30 06:30N 40°40' W 074°00'0 0.0
2017-Apr-30 06:00N 40°40' W 074°00'0 0.0
2017-Apr-30 05:30N 40°40' W 074°00'0 0.0
2017-Apr-30 05:00N 40°40' W 074°00'0 0.0
2017-Apr-30 04:30N 40°40' W 074°00'0 0.0
2017-Apr-30 04:00N 40°40' W 074°00'0 0.0
2017-Apr-30 03:30N 40°40' W 074°00'0 0.0
2017-Apr-30 03:00N 40°40' W 074°00'0 0.0
2017-Apr-30 02:30N 40°40' W 074°00'0 0.0
2017-Apr-30 02:00N 40°40' W 074°00'0 0.0
2017-Apr-30 01:30N 40°40' W 074°00'0 0.0
2017-Apr-30 01:00N 40°40' W 074°00'0 0.0
2017-Apr-30 00:30N 40°40' W 074°00'0 0.2
2017-Apr-30 00:00N 40°40' W 074°00'0 0.6
2017-Apr-29 23:30N 40°40' W 074°00'0 0.0
2017-Apr-29 23:00N 40°40' W 074°00'0 0.0
2017-Apr-29 22:30N 40°40' W 074°00'0 0.0
2017-Apr-29 22:00N 40°40' W 074°00'0 0.0
2017-Apr-29 21:30N 40°40' W 074°00'0 0.0
2017-Apr-29 21:00N 40°40' W 074°00'0 0.0
2017-Apr-29 20:30N 40°40' W 074°00'0 0.0
2017-Apr-29 20:00N 40°40' W 074°00'0 0.0
2017-Apr-29 19:30N 40°40' W 074°00'0 0.0
2017-Apr-29 19:00N 40°40' W 074°00'0 0.0
2017-Apr-29 18:30N 40°40' W 074°00'0 0.0
2017-Apr-29 18:00N 40°40' W 074°00'0 0.0
2017-Apr-29 17:30N 40°40' W 074°00'0 0.0
2017-Apr-29 17:00N 40°40' W 074°00'0 0.0
2017-Apr-29 16:30N 40°40' W 074°00'1 2.7
2017-Apr-29 16:00N 40°39' W 074°02'3 6.5
2017-Apr-29 15:30N 40°39' W 074°06'3 5.5
2017-Apr-29 15:00N 40°40' W 074°02'2 1.8
2017-Apr-29 14:00N 40°40' W 074°00'0 0.0
2017-Apr-29 13:30N 40°40' W 074°00'0 0.0
2017-Apr-29 13:00N 40°40' W 074°00'4 7.3
2017-Apr-29 12:30N 40°39' W 074°05'1 1.3
2017-Apr-29 12:00N 40°39' W 074°05'2 4.4
2017-Apr-29 11:30N 40°39' W 074°08'2 4.4
2017-Apr-29 11:00N 40°41' W 074°09'1 1.5
2017-Apr-29 10:30N 40°40' W 074°09'3 5.6
2017-Apr-29 10:00N 40°39' W 074°05'4 7.5
2017-Apr-29 09:30N 40°40' W 074°00'1 2.9
2017-Apr-29 09:00N 40°39' W 074°02'3 6.4
2017-Apr-29 08:30N 40°39' W 074°06'2 4.6
2017-Apr-29 08:00N 40°40' W 074°09'1 1.9
2017-Apr-29 07:30N 40°41' W 074°09'0 0.5
2017-Apr-29 07:00N 40°41' W 074°09'0 0.0
2017-Apr-29 06:30N 40°41' W 074°09'0 0.5
2017-Apr-29 06:00N 40°41' W 074°10'0 0.0
2017-Apr-29 05:30N 40°41' W 074°10'0 0.0
2017-Apr-29 05:00N 40°41' W 074°10'2 3.5
2017-Apr-29 04:30N 40°40' W 074°09'1 3.0
2017-Apr-29 04:00N 40°39' W 074°07'1 1.7
2017-Apr-29 03:30N 40°39' W 074°06'0 0.2
2017-Apr-29 03:00N 40°39' W 074°06'1 2.8
2017-Apr-29 02:30N 40°39' W 074°04'1 2.7
2017-Apr-29 02:00N 40°39' W 074°06'1 2.8
2017-Apr-29 01:30N 40°40' W 074°05'0 0.0
2017-Apr-29 01:00N 40°40' W 074°05'0 0.0
2017-Apr-29 00:30N 40°40' W 074°05'0 0.0
2017-Apr-29 00:00N 40°40' W 074°05'0 0.0
2017-Apr-28 23:30N 40°40' W 074°05'0 0.0
2017-Apr-28 23:00N 40°40' W 074°05'0 0.0
2017-Apr-28 22:30N 40°40' W 074°05'0 0.0
2017-Apr-28 22:00N 40°40' W 074°05'0 0.0
2017-Apr-28 21:30N 40°40' W 074°05'2 3.3
2017-Apr-28 21:00N 40°39' W 074°06'0 0.1
2017-Apr-28 20:30N 40°39' W 074°07'2 4.8
2017-Apr-28 20:00N 40°39' W 074°03'2 4.9
2017-Apr-28 19:30N 40°40' W 074°00'0 0.0
2017-Apr-28 19:00N 40°40' W 074°00'0 0.0
2017-Apr-28 18:30N 40°40' W 074°00'0 0.0
2017-Apr-28 18:00N 40°40' W 074°00'0 0.0
2017-Apr-28 17:30N 40°40' W 074°00'0 0.0
2017-Apr-28 17:00N 40°40' W 074°00'0 0.0
2017-Apr-28 16:30N 40°40' W 074°00'1 1.4
2017-Apr-28 16:00N 40°40' W 074°01'1 1.2
2017-Apr-28 15:30N 40°39' W 074°02'1 2.7
2017-Apr-28 15:00N 40°40' W 074°00'4 3.7
2017-Apr-28 14:00N 40°39' W 074°05'1 2.2
2017-Apr-28 13:30N 40°40' W 074°04'3 5.1
2017-Apr-28 13:00N 40°41' W 074°01'1 1.5
2017-Apr-28 12:30N 40°41' W 074°00'0 0.0
2017-Apr-28 12:00N 40°41' W 074°00'0 0.0
2017-Apr-28 11:30N 40°41' W 074°00'0 0.6
2017-Apr-28 11:00N 40°41' W 074°01'1 2.5
2017-Apr-28 10:30N 40°40' W 074°00'0 0.0
2017-Apr-28 10:00N 40°40' W 074°00'0 0.0
2017-Apr-28 09:30N 40°40' W 074°00'0 0.0
2017-Apr-28 09:00N 40°40' W 074°00'0 0.0
2017-Apr-28 08:30N 40°40' W 074°00'0 0.0
2017-Apr-28 08:00N 40°40' W 074°00'0 0.0
2017-Apr-28 07:30N 40°40' W 074°00'0 0.0
2017-Apr-28 07:00N 40°40' W 074°00'0 0.0
2017-Apr-28 06:30N 40°40' W 074°00'0 0.0
2017-Apr-28 06:00N 40°40' W 074°00'0 0.0
2017-Apr-28 05:30N 40°40' W 074°00'0 0.7
2017-Apr-28 05:00N 40°40' W 074°01'3 6.4
2017-Apr-28 04:30N 40°39' W 074°05'1 1.5
2017-Apr-28 04:00N 40°39' W 074°06'0 0.7
2017-Apr-28 03:30N 40°39' W 074°05'1 1.1
2017-Apr-28 03:00N 40°39' W 074°05'1 2.3
2017-Apr-28 02:30N 40°40' W 074°05'0 0.0
2017-Apr-28 02:00N 40°40' W 074°05'0 0.0
2017-Apr-28 01:30N 40°40' W 074°05'0 0.0
2017-Apr-28 01:00N 40°40' W 074°05'0 0.0
2017-Apr-28 00:30N 40°40' W 074°05'0 0.0
2017-Apr-28 00:00N 40°40' W 074°05'0 0.0
2017-Apr-27 23:30N 40°40' W 074°05'0 0.0
2017-Apr-27 23:00N 40°40' W 074°05'0 0.0
2017-Apr-27 22:30N 40°40' W 074°05'0 0.2
2017-Apr-27 22:00N 40°40' W 074°05'2 4.6
2017-Apr-27 21:30N 40°39' W 074°07'0 0.5
2017-Apr-27 21:00N 40°39' W 074°07'0 0.2
2017-Apr-27 20:29N 40°39' W 074°07'0 0.0
2017-Apr-27 20:00N 40°39' W 074°07'1 2.2
2017-Apr-27 19:30N 40°39' W 074°08'1 2.5
2017-Apr-27 19:00N 40°40' W 074°09'0 0.0
2017-Apr-27 18:30N 40°40' W 074°09'0 0.0
2017-Apr-27 18:00N 40°40' W 074°09'0 0.0
2017-Apr-27 17:30N 40°40' W 074°09'0 0.0
2017-Apr-27 17:00N 40°40' W 074°09'0 0.0
2017-Apr-27 16:30N 40°40' W 074°09'0 0.0
2017-Apr-27 15:57N 40°40' W 074°09'0 0.0
2017-Apr-27 15:30N 40°40' W 074°09'0 0.0
2017-Apr-27 14:59N 40°40' W 074°09'0 0.0
2017-Apr-27 14:00N 40°40' W 074°09'0 0.0
2017-Apr-27 13:30N 40°40' W 074°09'0 0.0
2017-Apr-27 13:00N 40°40' W 074°09'0 0.0
2017-Apr-27 12:30N 40°40' W 074°09'0 0.5
2017-Apr-27 12:00N 40°40' W 074°09'1 2.4
2017-Apr-27 11:30N 40°39' W 074°08'4 7.3
2017-Apr-27 11:00N 40°39' W 074°04'3 5.2
2017-Apr-27 10:30N 40°40' W 074°00'0 0.2
2017-Apr-27 10:00N 40°40' W 074°00'0 0.0
2017-Apr-27 09:30N 40°40' W 074°00'0 0.0
2017-Apr-27 09:00N 40°40' W 074°00'0 1.0
2017-Apr-27 08:30N 40°40' W 074°01'2 4.5
2017-Apr-27 08:00N 40°39' W 074°04'2 4.2
2017-Apr-27 07:30N 40°39' W 074°06'0 0.0
2017-Apr-27 07:00N 40°39' W 074°06'0 0.0
2017-Apr-27 06:30N 40°39' W 074°06'0 0.7
2017-Apr-27 06:00N 40°39' W 074°07'0 0.7
2017-Apr-27 05:28N 40°39' W 074°07'0 0.0
2017-Apr-27 04:29N 40°39' W 074°07'3 5.9
2017-Apr-27 04:00N 40°39' W 074°11'2 3.2
2017-Apr-27 03:30N 40°38' W 074°12'0 0.1
2017-Apr-27 02:59N 40°38' W 074°12'1 2.1
2017-Apr-27 02:30N 40°38' W 074°12'1 1.9
2017-Apr-27 02:00N 40°38' W 074°12'2 4.3
2017-Apr-27 01:30N 40°39' W 074°10'3 5.3
2017-Apr-27 01:00N 40°39' W 074°06'2 3.5
2017-Apr-27 00:30N 40°39' W 074°04'1 3.0
2017-Apr-27 00:00N 40°40' W 074°03'2 4.4
2017-Apr-26 23:30N 40°40' W 074°00'0 0.0
2017-Apr-26 23:00N 40°40' W 074°00'0 0.0
2017-Apr-26 22:31N 40°40' W 074°00'0 0.0
2017-Apr-26 22:00N 40°40' W 074°00'0 0.0
2017-Apr-26 21:30N 40°40' W 074°00'0 0.0
2017-Apr-26 21:00N 40°40' W 074°00'0 0.0
2017-Apr-26 20:30N 40°40' W 074°00'0 0.0
2017-Apr-26 20:00N 40°40' W 074°00'0 0.0
2017-Apr-26 19:30N 40°40' W 074°00'0 0.0
2017-Apr-26 19:00N 40°40' W 074°00'0 0.0
2017-Apr-26 18:30N 40°40' W 074°00'0 0.0
2017-Apr-26 18:00N 40°40' W 074°00'0 0.0
2017-Apr-26 17:30N 40°40' W 074°00'0 0.0
2017-Apr-26 17:00N 40°40' W 074°00'0 0.0
2017-Apr-26 16:30N 40°40' W 074°00'0 0.0
2017-Apr-26 16:00N 40°40' W 074°00'0 0.0
2017-Apr-26 15:30N 40°40' W 074°00'0 0.0
2017-Apr-26 15:00N 40°40' W 074°00'0 0.0
2017-Apr-26 14:30N 40°40' W 074°00'0 0.0
2017-Apr-26 13:30N 40°40' W 074°00'0 0.0
2017-Apr-26 13:00N 40°40' W 074°00'0 0.0
2017-Apr-26 12:30N 40°40' W 074°00'0 0.0
2017-Apr-26 12:00N 40°40' W 074°00'0 0.0
2017-Apr-26 11:30N 40°40' W 074°00'0 0.0
2017-Apr-26 11:00N 40°40' W 074°00'0 0.0
2017-Apr-26 10:30N 40°40' W 074°00'0 0.0
2017-Apr-26 10:00N 40°40' W 074°00'0 0.0
2017-Apr-26 09:30N 40°40' W 074°00'0 0.0
2017-Apr-26 09:00N 40°40' W 074°00'0 0.0
2017-Apr-26 08:30N 40°40' W 074°00'0 0.0
2017-Apr-26 08:00N 40°40' W 074°00'0 0.0
2017-Apr-26 07:30N 40°40' W 074°00'0 0.0
2017-Apr-26 07:00N 40°40' W 074°00'0 0.0
2017-Apr-26 06:30N 40°40' W 074°00'0 0.0
2017-Apr-26 06:00N 40°40' W 074°00'2 4.7
2017-Apr-26 05:30N 40°39' W 074°03'2 4.1
2017-Apr-26 05:00N 40°39' W 074°05'0 0.2
2017-Apr-26 04:30N 40°39' W 074°05'0 0.2
2017-Apr-26 04:00N 40°39' W 074°05'2 3.7
2017-Apr-26 03:30N 40°39' W 074°03'2 4.5
2017-Apr-26 02:59N 40°40' W 074°00'0 0.0
2017-Apr-26 02:29N 40°40' W 074°00'0 0.0
2017-Apr-26 01:59N 40°40' W 074°00'0 0.0
2017-Apr-26 01:29N 40°40' W 074°00'0 0.0
2017-Apr-26 00:59N 40°40' W 074°00'0 0.0
2017-Apr-26 00:29N 40°40' W 074°00'0 0.0
2017-Apr-25 23:59N 40°40' W 074°00'0 0.0
2017-Apr-25 23:29N 40°40' W 074°00'0 0.0
2017-Apr-25 22:59N 40°40' W 074°00'0 0.0
2017-Apr-25 22:29N 40°40' W 074°00'0 0.0
2017-Apr-25 21:59N 40°40' W 074°00'0 0.0
2017-Apr-25 21:29N 40°40' W 074°00'0 0.0
2017-Apr-25 20:59N 40°40' W 074°00'0 0.0
2017-Apr-25 20:29N 40°40' W 074°00'0 0.0
2017-Apr-25 19:59N 40°40' W 074°00'0 0.0
2017-Apr-25 19:29N 40°40' W 074°00'0 0.0
2017-Apr-25 18:59N 40°40' W 074°00'0 0.0
2017-Apr-25 18:29N 40°40' W 074°00'0 0.0
2017-Apr-25 17:59N 40°40' W 074°00'0 0.0
2017-Apr-25 17:29N 40°40' W 074°00'0 0.0
2017-Apr-25 16:59N 40°40' W 074°00'0 0.0
2017-Apr-25 16:29N 40°40' W 074°00'0 0.0
2017-Apr-25 15:59N 40°40' W 074°00'0 0.0
2017-Apr-25 15:29N 40°40' W 074°00'0 0.0
2017-Apr-25 14:59N 40°40' W 074°00'0 0.0
2017-Apr-25 14:29N 40°40' W 074°00'0 0.0
2017-Apr-25 13:29N 40°40' W 074°00'0 0.0
2017-Apr-25 12:59N 40°40' W 074°00'0 0.0
2017-Apr-25 12:29N 40°40' W 074°00'0 0.0
2017-Apr-25 11:59N 40°40' W 074°00'0 0.0
2017-Apr-25 11:29N 40°40' W 074°00'0 0.0
2017-Apr-25 10:59N 40°40' W 074°00'0 0.0
2017-Apr-25 10:29N 40°40' W 074°00'0 0.0
2017-Apr-25 09:59N 40°40' W 074°00'0 0.0
2017-Apr-25 09:29N 40°40' W 074°00'0 0.0
2017-Apr-25 08:59N 40°40' W 074°00'0 0.0
2017-Apr-25 08:29N 40°40' W 074°00'0 0.0
2017-Apr-25 07:59N 40°40' W 074°00'0 0.0
2017-Apr-25 07:29N 40°40' W 074°00'0 0.0
2017-Apr-25 06:59N 40°40' W 074°00'0 0.0
2017-Apr-25 06:29N 40°40' W 074°00'0 0.0
2017-Apr-25 05:59N 40°40' W 074°00'0 0.0
2017-Apr-25 05:29N 40°40' W 074°00'0 0.0
2017-Apr-25 04:59N 40°40' W 074°00'0 0.0
2017-Apr-25 04:29N 40°40' W 074°00'0 0.0
2017-Apr-25 03:59N 40°40' W 074°00'0 0.0
2017-Apr-25 03:29N 40°40' W 074°00'0 0.0
2017-Apr-25 02:59N 40°40' W 074°00'0 0.0
2017-Apr-25 02:29N 40°40' W 074°00'0 0.0
2017-Apr-25 01:59N 40°40' W 074°00'0 0.0
2017-Apr-25 01:29N 40°40' W 074°00'0 0.0
2017-Apr-25 00:59N 40°40' W 074°00'0 0.0
2017-Apr-25 00:29N 40°40' W 074°00'0 0.0
2017-Apr-24 23:59N 40°40' W 074°00'0 0.0
2017-Apr-24 23:29N 40°40' W 074°00'0 0.0
2017-Apr-24 22:59N 40°40' W 074°00'0 0.0
2017-Apr-24 22:29N 40°40' W 074°00'0 0.0
2017-Apr-24 21:59N 40°40' W 074°00'0 0.0
2017-Apr-24 21:29N 40°40' W 074°00'0 0.0
2017-Apr-24 20:59N 40°40' W 074°00'0 0.0
2017-Apr-24 20:29N 40°40' W 074°00'0 0.0
2017-Apr-24 19:59N 40°40' W 074°00'0 0.0
2017-Apr-24 19:29N 40°40' W 074°00'0 0.0
2017-Apr-24 18:59N 40°40' W 074°00'0 0.0
2017-Apr-24 18:29N 40°40' W 074°00'0 0.0
2017-Apr-24 17:59N 40°40' W 074°00'0 0.0
2017-Apr-24 17:29N 40°40' W 074°00'0 0.0
2017-Apr-24 16:59N 40°40' W 074°00'0 0.0
2017-Apr-24 16:29N 40°40' W 074°00'0 0.0
2017-Apr-24 15:59N 40°40' W 074°00'0 0.0
2017-Apr-24 15:29N 40°40' W 074°00'0 0.0
2017-Apr-24 14:59N 40°40' W 074°00'0 0.0
2017-Apr-24 14:29N 40°40' W 074°00'0 0.0
2017-Apr-24 13:29N 40°40' W 074°00'0 0.0
2017-Apr-24 12:59N 40°40' W 074°00'0 0.0
2017-Apr-24 12:29N 40°40' W 074°00'0 0.0
2017-Apr-24 11:59N 40°40' W 074°00'0 0.0
2017-Apr-24 11:29N 40°40' W 074°00'0 0.0
2017-Apr-24 10:56N 40°40' W 074°00'0 0.0
2017-Apr-24 10:29N 40°40' W 074°00'0 0.0
2017-Apr-24 09:59N 40°40' W 074°00'0 0.0
2017-Apr-24 09:29N 40°40' W 074°00'0 0.0
2017-Apr-24 08:59N 40°40' W 074°00'0 0.0
2017-Apr-24 08:29N 40°40' W 074°00'0 0.0
2017-Apr-24 07:59N 40°40' W 074°00'0 0.0
2017-Apr-24 07:29N 40°40' W 074°00'0 0.0
2017-Apr-24 06:59N 40°40' W 074°00'0 0.0
2017-Apr-24 06:29N 40°40' W 074°00'0 0.0
2017-Apr-24 05:59N 40°40' W 074°00'0 0.0
2017-Apr-24 05:29N 40°40' W 074°00'0 0.0
2017-Apr-24 04:59N 40°40' W 074°00'0 0.0
2017-Apr-24 04:29N 40°40' W 074°00'0 0.0
2017-Apr-24 03:59N 40°40' W 074°00'0 0.0
2017-Apr-24 03:29N 40°40' W 074°00'0 0.0
2017-Apr-24 02:59N 40°40' W 074°00'0 0.0
2017-Apr-24 02:29N 40°40' W 074°00'0 0.0
2017-Apr-24 01:59N 40°40' W 074°00'0 0.0
2017-Apr-24 01:29N 40°40' W 074°00'0 0.0
2017-Apr-24 00:59N 40°40' W 074°00'0 0.0
2017-Apr-24 00:29N 40°40' W 074°00'0 0.0
2017-Apr-23 23:59N 40°40' W 074°00'0 0.0
2017-Apr-23 23:29N 40°40' W 074°00'0 0.0
2017-Apr-23 22:59N 40°40' W 074°00'0 0.0
2017-Apr-23 22:29N 40°40' W 074°00'0 0.0
2017-Apr-23 21:56N 40°40' W 074°00'0 0.0
2017-Apr-23 21:29N 40°40' W 074°00'0 0.0
2017-Apr-23 20:59N 40°40' W 074°00'0 0.0
2017-Apr-23 20:29N 40°40' W 074°00'0 0.0
2017-Apr-23 19:59N 40°40' W 074°00'0 0.0
2017-Apr-23 19:29N 40°40' W 074°00'0 0.0
2017-Apr-23 18:59N 40°40' W 074°00'0 0.0
2017-Apr-23 18:29N 40°40' W 074°00'0 0.0
2017-Apr-23 17:59N 40°40' W 074°00'0 0.0
2017-Apr-23 17:29N 40°40' W 074°00'0 0.0
2017-Apr-23 16:59N 40°40' W 074°00'0 0.0
2017-Apr-23 16:29N 40°40' W 074°00'0 0.0
2017-Apr-23 15:59N 40°40' W 074°00'0 0.0
2017-Apr-23 15:29N 40°40' W 074°00'0 0.0
2017-Apr-23 14:59N 40°40' W 074°00'0 0.0
2017-Apr-23 13:59N 40°40' W 074°00'0 0.0
2017-Apr-23 13:29N 40°40' W 074°00'0 0.0
2017-Apr-23 12:59N 40°40' W 074°00'0 0.0
2017-Apr-23 12:29N 40°40' W 074°00'0 0.0
2017-Apr-23 11:59N 40°40' W 074°00'0 0.0
2017-Apr-23 11:29N 40°40' W 074°00'0 0.2
2017-Apr-23 11:00N 40°40' W 074°00'0 0.5
2017-Apr-23 10:30N 40°40' W 074°00'0 0.1
2017-Apr-23 09:58N 40°40' W 074°00'0 0.6
2017-Apr-23 09:24N 40°40' W 073°60'0 0.0
2017-Apr-23 09:00N 40°40' W 073°60'0 0.0
2017-Apr-23 08:30N 40°40' W 073°60'0 0.0
2017-Apr-23 08:00N 40°40' W 073°60'0 0.0
2017-Apr-23 07:30N 40°40' W 073°60'0 0.0
2017-Apr-23 07:00N 40°40' W 073°60'0 0.0
2017-Apr-23 06:30N 40°40' W 073°60'0 0.0
2017-Apr-23 06:00N 40°40' W 074°00'0 0.0
2017-Apr-23 05:30N 40°40' W 074°00'0 0.0
2017-Apr-23 05:00N 40°40' W 073°60'0 0.0
2017-Apr-23 04:30N 40°40' W 073°60'0 0.0
2017-Apr-23 04:00N 40°40' W 073°60'0 0.0
2017-Apr-23 03:27N 40°40' W 073°60'0 0.0
2017-Apr-23 03:00N 40°40' W 073°60'0 0.0
2017-Apr-23 02:30N 40°40' W 073°60'0 0.0
2017-Apr-23 02:00N 40°40' W 073°60'0 0.0
2017-Apr-23 01:30N 40°40' W 073°60'0 0.0
2017-Apr-23 01:00N 40°40' W 073°60'0 0.0
2017-Apr-23 00:30N 40°40' W 073°60'0 0.0
2017-Apr-23 00:00N 40°40' W 073°60'0 0.0
2017-Apr-22 23:30N 40°40' W 073°60'0 0.0
2017-Apr-22 23:00N 40°40' W 074°00'0 0.0
2017-Apr-22 22:30N 40°40' W 074°00'0 0.0
2017-Apr-22 22:00N 40°40' W 073°60'0 0.0
2017-Apr-22 21:30N 40°40' W 073°60'0 0.0
2017-Apr-22 21:00N 40°40' W 073°60'0 0.0
2017-Apr-22 20:30N 40°40' W 073°60'0 0.0
2017-Apr-22 20:00N 40°40' W 073°60'0 0.0
2017-Apr-22 19:30N 40°40' W 073°60'0 0.0
2017-Apr-22 19:00N 40°40' W 073°60'0 0.0
2017-Apr-22 18:30N 40°40' W 074°00'0 0.0
2017-Apr-22 18:00N 40°40' W 074°00'0 0.0
2017-Apr-22 17:30N 40°40' W 073°60'0 0.0
2017-Apr-22 17:00N 40°40' W 073°60'0 0.0
2017-Apr-22 16:30N 40°40' W 073°60'0 0.0
2017-Apr-22 16:00N 40°40' W 074°00'0 0.0
2017-Apr-22 15:30N 40°40' W 073°60'0 0.0
2017-Apr-22 15:00N 40°40' W 073°60'0 0.0
2017-Apr-22 14:30N 40°40' W 073°60'0 0.0
2017-Apr-22 13:30N 40°40' W 073°60'0 0.0
2017-Apr-22 13:00N 40°40' W 073°60'0 0.0
2017-Apr-22 12:30N 40°40' W 074°00'0 0.6
2017-Apr-22 11:58N 40°40' W 074°00'0 0.6
2017-Apr-22 11:30N 40°40' W 074°00'0 0.0
2017-Apr-22 11:00N 40°40' W 074°00'0 0.0
2017-Apr-22 10:30N 40°40' W 074°00'0 0.0
2017-Apr-22 10:00N 40°40' W 074°00'0 0.0
2017-Apr-22 09:30N 40°40' W 074°00'0 0.0
2017-Apr-22 09:00N 40°40' W 074°00'0 0.0
2017-Apr-22 08:30N 40°40' W 074°00'0 0.0
2017-Apr-22 08:00N 40°40' W 074°00'0 0.0
2017-Apr-22 07:30N 40°40' W 074°00'0 0.0
2017-Apr-22 07:00N 40°40' W 074°00'0 0.0
2017-Apr-22 06:30N 40°40' W 074°00'0 0.0
2017-Apr-22 06:00N 40°40' W 074°00'0 0.0
2017-Apr-22 05:30N 40°40' W 074°00'0 0.0
2017-Apr-22 05:00N 40°40' W 074°00'0 0.0
2017-Apr-22 04:30N 40°40' W 074°00'0 0.0
2017-Apr-22 04:00N 40°40' W 074°00'0 0.0
2017-Apr-22 03:30N 40°40' W 074°00'0 0.0
2017-Apr-22 03:00N 40°40' W 074°00'0 0.0
2017-Apr-22 02:30N 40°40' W 074°00'0 0.0
2017-Apr-22 02:00N 40°40' W 074°00'0 0.0
2017-Apr-22 01:30N 40°40' W 074°00'0 0.0
2017-Apr-22 01:00N 40°40' W 074°00'0 0.0
2017-Apr-22 00:30N 40°40' W 074°00'0 0.0
2017-Apr-22 00:00N 40°40' W 074°00'0 0.0
2017-Apr-21 23:30N 40°40' W 074°00'0 0.0
2017-Apr-21 23:00N 40°40' W 074°00'0 0.0
2017-Apr-21 22:30N 40°40' W 074°00'0 0.0
2017-Apr-21 22:00N 40°40' W 074°00'0 0.0
2017-Apr-21 21:30N 40°40' W 074°00'0 0.0
2017-Apr-21 21:00N 40°40' W 074°00'0 0.0
2017-Apr-21 20:30N 40°40' W 074°00'0 0.0
2017-Apr-21 20:00N 40°40' W 074°00'0 0.0
2017-Apr-21 19:30N 40°40' W 074°00'0 0.0
2017-Apr-21 19:00N 40°40' W 074°00'0 0.0
2017-Apr-21 18:30N 40°40' W 074°00'0 0.0
2017-Apr-21 18:00N 40°40' W 074°00'0 0.0
2017-Apr-21 17:30N 40°40' W 074°00'0 0.0
2017-Apr-21 17:00N 40°40' W 074°00'0 0.0
2017-Apr-21 16:30N 40°40' W 074°00'0 0.0
2017-Apr-21 16:00N 40°40' W 074°00'0 0.0
2017-Apr-21 15:30N 40°40' W 074°00'0 0.0
2017-Apr-21 15:00N 40°40' W 074°00'0 0.0
2017-Apr-21 14:30N 40°40' W 074°00'0 0.0
2017-Apr-21 13:30N 40°40' W 074°00'0 0.0
2017-Apr-21 13:00N 40°40' W 074°00'0 0.0
2017-Apr-21 12:30N 40°40' W 074°00'0 0.0
2017-Apr-21 12:00N 40°40' W 074°00'0 0.0
2017-Apr-21 11:30N 40°40' W 074°00'0 0.0
2017-Apr-21 11:00N 40°40' W 074°00'0 0.0
2017-Apr-21 10:30N 40°40' W 074°00'0 0.0
2017-Apr-21 10:00N 40°40' W 074°00'0 0.0
2017-Apr-21 09:30N 40°40' W 074°00'0 0.0
2017-Apr-21 09:00N 40°40' W 074°00'0 0.0
2017-Apr-21 08:30N 40°40' W 074°00'0 0.0
2017-Apr-21 07:57N 40°40' W 074°00'0 0.0
2017-Apr-21 07:30N 40°40' W 074°00'0 0.0
2017-Apr-21 07:00N 40°40' W 074°00'0 0.0
2017-Apr-21 06:30N 40°40' W 074°00'0 0.0
2017-Apr-21 06:00N 40°40' W 074°00'0 0.0
2017-Apr-21 05:30N 40°40' W 074°00'0 0.0
2017-Apr-21 05:00N 40°40' W 074°00'0 0.0
2017-Apr-21 04:30N 40°40' W 074°00'0 0.0
2017-Apr-21 04:00N 40°40' W 074°00'0 0.0
2017-Apr-21 03:30N 40°40' W 074°00'0 0.0
2017-Apr-21 03:00N 40°40' W 074°00'  

Dump ship's entire track history